Time;durP1;ratioP1;P1;durP2;ratioP2;P2;SDS_P1;SDS_P2;PMS_P1;PMS_P2;Temp;Humidity;BMP_temperature;BMP_pressure;BME280_temperature;BME280_humidity;BME280_pressure;Samples;Min_cycle;Max_cycle;Signal;HPM_P1;HPM_P2
2022/04/12 00:01:09;;;;;;;26.30;9.00;;;;;;;22.37;40.47;98659.28;1789978;79;21022;-54
2022/04/12 00:03:36;;;;;;;24.37;9.97;;;;;;;22.42;40.38;98660.48;1788335;78;21147;-54
2022/04/12 00:06:03;;;;;;;18.93;8.83;;;;;;;22.29;40.62;98662.65;1783359;80;21010;-55
2022/04/12 00:08:31;;;;;;;21.33;7.33;;;;;;;22.36;40.63;98664.36;1787536;78;21725;-56
2022/04/12 00:10:58;;;;;;;23.97;8.20;;;;;;;22.28;40.71;98659.21;1772553;80;20983;-54
2022/04/12 00:13:25;;;;;;;24.93;8.20;;;;;;;22.03;41.42;98661.05;1783858;80;21078;-54
2022/04/12 00:15:52;;;;;;;23.40;7.73;;;;;;;21.91;41.64;98664.20;1785079;78;21860;-60
2022/04/12 00:21:05;;;;;;;20.40;7.17;;;;;;;22.24;40.96;98655.59;1785973;78;20998;-56
2022/04/12 00:23:32;;;;;;;20.00;7.53;;;;;;;22.17;40.99;98654.42;1783677;80;21572;-55
2022/04/12 00:25:59;;;;;;;17.03;6.73;;;;;;;22.24;40.83;98660.89;1774323;78;21117;-59
2022/04/12 00:28:28;;;;;;;28.83;7.60;;;;;;;22.47;40.27;98659.61;1784472;78;21387;-55
2022/04/12 00:30:55;;;;;;;17.87;6.57;;;;;;;22.20;40.90;98651.96;1786665;78;20920;-54
2022/04/12 00:33:23;;;;;;;21.10;7.53;;;;;;;22.44;40.60;98661.53;1786015;78;20968;-55
2022/04/12 00:35:52;;;;;;;18.87;6.63;;;;;;;22.18;40.90;98655.98;1784021;80;20924;-63
2022/04/12 00:38:23;;;;;;;22.90;8.10;;;;;;;22.51;40.32;98646.75;1785392;78;21062;-56
2022/04/12 00:40:49;;;;;;;27.63;8.00;;;;;;;22.34;40.54;98641.29;1785387;78;21313;-57
2022/04/12 00:43:18;;;;;;;25.83;7.13;;;;;;;22.59;40.19;98649.23;1785812;78;20974;-55
2022/04/12 00:45:46;;;;;;;22.57;6.60;;;;;;;22.57;40.14;98643.42;1785726;78;21449;-55
2022/04/12 00:48:14;;;;;;;18.37;6.47;;;;;;;22.39;40.40;98633.23;1785166;78;21805;-56
2022/04/12 00:50:41;;;;;;;18.93;6.30;;;;;;;22.50;40.27;98634.56;1783485;80;22173;-57
2022/04/12 00:53:08;;;;;;;22.77;6.53;;;;;;;22.42;40.45;98629.17;1785811;78;21622;-55
2022/04/12 00:55:36;;;;;;;22.47;7.53;;;;;;;22.07;41.05;98626.20;1783553;80;21639;-55
2022/04/12 00:58:07;;;;;;;19.57;6.77;;;;;;;21.79;41.45;98617.51;1788232;78;20963;-55
2022/04/12 01:00:34;;;;;;;19.45;6.25;;;;;;;21.79;41.45;98617.51;1783249;80;21599;-55
2022/04/12 01:03:02;;;;;;;17.70;6.63;;;;;;;22.15;41.17;98619.42;1784134;80;21054;-55
2022/04/12 01:05:30;;;;;;;29.93;7.43;;;;;;;21.73;41.37;98622.12;1793173;78;21159;-55
2022/04/12 01:07:57;;;;;;;25.77;6.90;;;;;;;22.40;40.47;98616.20;1791429;78;20927;-54
2022/04/12 01:10:24;;;;;;;27.87;7.33;;;;;;;22.75;39.69;98618.55;1776758;79;21707;-57
2022/04/12 01:12:52;;;;;;;24.13;6.80;;;;;;;22.76;39.43;98629.96;1777672;79;22755;-56
2022/04/12 01:15:24;;;;;;;27.87;7.47;;;;;;;22.74;39.39;98636.13;1772450;80;20975;-55
2022/04/12 01:17:52;;;;;;;;;;;;;;;22.52;39.52;98627.07;1728336;81;22111;-55
2022/04/12 01:20:24;;;;;;;30.53;8.20;;;;;;;22.71;39.21;98630.09;1777041;79;20096;-56
2022/04/12 01:23:12;;;;;;;27.93;7.73;;;;;;;22.62;39.30;98631.92;1726827;81;22372;-56
2022/04/12 01:25:38;;;;;;;19.07;6.90;;;;;;;22.60;39.17;98640.17;1731271;81;21704;-55
2022/04/12 01:28:10;;;;;;;22.23;7.70;;;;;;;22.63;39.08;98640.12;1791861;78;20993;-63
2022/04/12 01:30:37;;;;;;;25.60;7.67;;;;;;;22.67;38.90;98629.13;1729368;81;21638;-57
2022/04/12 01:33:04;;;;;;;29.80;8.30;;;;;;;22.55;39.08;98633.11;1789496;79;20950;-57
2022/04/12 01:35:31;;;;;;;25.57;8.13;;;;;;;22.49;39.11;98631.65;1728488;81;20927;-57
2022/04/12 01:37:59;;;;;;;21.90;7.23;;;;;;;22.69;38.92;98636.23;1744219;81;21037;-54
2022/04/12 01:40:25;;;;;;;29.50;7.77;;;;;;;22.51;39.12;98633.47;1754624;81;20875;-58
2022/04/12 01:42:53;;;;;;;21.63;6.80;;;;;;;22.50;39.14;98629.77;1755379;81;21490;-58
2022/04/12 01:45:21;;;;;;;23.53;6.63;;;;;;;22.52;39.29;98623.63;1755514;81;21056;-54
2022/04/12 01:47:48;;;;;;;26.97;7.67;;;;;;;22.62;39.20;98615.98;1755501;81;20945;-54
2022/04/12 01:50:16;;;;;;;20.87;6.50;;;;;;;22.68;39.05;98618.73;1755225;81;21013;-55
2022/04/12 01:52:43;;;;;;;29.00;8.40;;;;;;;22.59;39.28;98605.41;1756310;80;21085;-54
2022/04/12 01:55:10;;;;;;;27.63;7.97;;;;;;;22.47;39.31;98611.27;1755440;81;21131;-54
2022/04/12 01:57:38;;;;;;;22.47;6.13;;;;;;;22.43;39.74;98605.54;1754266;80;20973;-54
2022/04/12 02:00:07;;;;;;;26.50;6.77;;;;;;;22.33;39.95;98601.23;1789671;80;21046;-61
2022/04/12 02:02:36;;;;;;;24.23;6.97;;;;;;;22.34;40.01;98600.92;1728622;81;21133;-55
2022/04/12 02:05:04;;;;;;;22.73;7.33;;;;;;;22.36;40.01;98601.19;1775204;80;21061;-53
2022/04/12 02:07:30;;;;;;;24.53;7.30;;;;;;;21.91;40.84;98607.17;1766574;81;21544;-55
2022/04/12 02:09:58;;;;;;;21.67;6.93;;;;;;;22.05;40.71;98597.31;1755547;80;21636;-56
2022/04/12 02:12:25;;;;;;;29.07;7.57;;;;;;;22.01;40.78;98600.33;1766031;81;21035;-59
2022/04/12 02:14:53;;;;;;;24.83;7.13;;;;;;;21.78;41.32;98606.12;1766284;81;21678;-55
2022/04/12 02:17:20;;;;;;;34.67;9.40;;;;;;;21.78;41.32;98606.12;1766597;81;20966;-54
2022/04/12 02:19:48;;;;;;;29.13;8.37;;;;;;;21.83;41.21;98598.59;1766888;81;21615;-55
2022/04/12 02:22:14;;;;;;;21.53;7.53;;;;;;;21.72;41.26;98610.48;1765804;80;20938;-58
2022/04/12 02:24:41;;;;;;;23.53;7.77;;;;;;;21.71;41.36;98610.25;1766587;81;21032;-54
2022/04/12 02:27:08;;;;;;;25.80;8.47;;;;;;;20.53;43.23;98618.92;1766531;81;21696;-54
2022/04/12 02:29:35;;;;;;;27.27;7.63;;;;;;;21.17;42.57;98601.16;1766562;81;20986;-55
2022/04/12 02:32:03;;;;;;;25.77;8.20;;;;;;;21.41;42.24;98601.81;1766405;81;21720;-55
2022/04/12 02:34:30;;;;;;;27.30;7.97;;;;;;;21.39;42.28;98599.98;1766031;81;21044;-61
2022/04/12 02:36:56;;;;;;;22.43;9.47;;;;;;;21.37;42.27;98592.34;1766407;81;20996;-55
2022/04/12 02:39:25;;;;;;;31.53;7.93;;;;;;;21.36;42.09;98599.24;1766627;81;21510;-54
2022/04/12 02:41:52;;;;;;;31.30;9.00;;;;;;;21.34;42.22;98591.59;1766326;81;21704;-54
2022/04/12 02:44:18;;;;;;;28.87;9.30;;;;;;;21.38;42.18;98597.87;1766772;81;21700;-61
2022/04/12 02:46:46;;;;;;;24.93;8.43;;;;;;;21.27;42.31;98598.33;1766170;78;21718;-54
2022/04/12 02:49:13;;;;;;;27.70;9.07;;;;;;;21.22;42.37;98611.69;1766445;81;22135;-56
2022/04/12 02:51:40;;;;;;;28.43;8.77;;;;;;;21.20;42.42;98617.27;1766068;81;21733;-56
2022/04/12 02:54:07;;;;;;;28.73;8.87;;;;;;;21.21;42.45;98614.07;1766364;81;21754;-56
2022/04/12 02:56:34;;;;;;;20.17;7.37;;;;;;;21.32;42.35;98604.31;1766607;81;21619;-55
2022/04/12 02:59:01;;;;;;;28.70;8.03;;;;;;;21.27;42.32;98608.39;1765830;81;21044;-58
2022/04/12 03:01:28;;;;;;;26.47;7.90;;;;;;;21.29;42.36;98609.41;1793059;78;22025;-55
2022/04/12 03:03:54;;;;;;;28.60;8.60;;;;;;;21.25;42.42;98599.16;1818102;78;21623;-56
2022/04/12 03:06:22;;;;;;;28.10;8.40;;;;;;;21.28;42.37;98603.88;1818222;78;20929;-55
2022/04/12 03:08:50;;;;;;;31.90;8.50;;;;;;;21.37;42.32;98599.51;1815695;78;21606;-57
2022/04/12 03:11:19;;;;;;;34.63;11.13;;;;;;;21.09;42.70;98587.51;1817519;78;21040;-55
2022/04/12 03:13:47;;;;;;;33.83;10.10;;;;;;;21.09;42.70;98587.51;1817162;78;20966;-56
2022/04/12 03:16:15;;;;;;;27.37;10.13;;;;;;;21.21;42.68;98588.35;1817312;77;21029;-56
2022/04/12 03:18:41;;;;;;;27.97;9.67;;;;;;;21.29;42.59;98584.23;1817613;78;21699;-63
2022/04/12 03:21:08;;;;;;;25.03;9.13;;;;;;;21.35;42.50;98595.81;1817924;78;21588;-55
2022/04/12 03:23:35;;;;;;;21.67;7.13;;;;;;;21.36;42.55;98609.84;1817545;78;22249;-56
2022/04/12 03:26:01;;;;;;;34.47;9.47;;;;;;;21.43;42.38;98628.80;1817968;78;21086;-55
2022/04/12 03:28:28;;;;;;;28.53;8.50;;;;;;;21.43;42.32;98645.25;1818304;78;20887;-55
2022/04/12 03:30:55;;;;;;;23.77;7.47;;;;;;;21.50;42.56;98643.78;1817112;78;21627;-55
2022/04/12 03:33:21;;;;;;;27.43;7.37;;;;;;;21.44;43.00;98661.39;1818017;78;22686;-54
2022/04/12 03:35:48;;;;;;;23.27;7.33;;;;;;;21.53;44.68;98660.43;1817691;78;21043;-55
2022/04/12 03:38:16;;;;;;;35.00;8.40;;;;;;;21.37;46.96;98657.27;1817832;78;21601;-55
2022/04/12 03:40:46;;;;;;;34.50;8.60;;;;;;;21.22;48.78;98638.19;1817744;78;21665;-56
2022/04/12 03:43:11;;;;;;;19.90;7.53;;;;;;;20.87;51.57;98639.02;1817134;78;20934;-56
2022/04/12 03:45:39;;;;;;;28.07;7.17;;;;;;;20.86;53.44;98635.59;1817548;78;21249;-55
2022/04/12 03:48:06;;;;;;;30.67;8.03;;;;;;;20.79;55.37;98639.69;1817983;78;21744;-55
2022/04/12 03:50:36;;;;;;;28.57;7.93;;;;;;;20.62;57.33;98650.27;1817445;78;21706;-61
2022/04/12 03:53:04;;;;;;;34.05;8.23;;;;;;;20.51;59.12;98645.42;1816832;78;21741;-56
2022/04/12 03:55:31;;;;;;;27.83;8.00;;;;;;;20.51;60.81;98643.55;1817660;78;21123;-55
2022/04/12 03:58:03;;;;;;;29.13;8.10;;;;;;;20.34;63.54;98641.91;1806262;78;21528;-56
2022/04/12 04:00:32;;;;;;;31.53;8.00;;;;;;;20.34;63.54;98641.91;1817664;78;21541;-60
2022/04/12 04:02:59;;;;;;;33.83;9.90;;;;;;;20.15;67.98;98651.98;1814076;78;21863;-56
2022/04/12 04:05:26;;;;;;;29.37;9.87;;;;;;;20.32;71.85;98629.52;1782205;80;21666;-56
2022/04/12 04:07:53;;;;;;;33.83;8.97;;;;;;;20.23;73.81;98629.90;1782161;80;21736;-55
2022/04/12 04:10:21;;;;;;;24.00;7.57;;;;;;;20.23;73.81;98629.90;1762722;81;21291;-58
2022/04/12 04:12:48;;;;;;;31.60;8.20;;;;;;;20.11;78.25;98631.64;1781148;80;21689;-55
2022/04/12 04:15:15;;;;;;;29.33;9.53;;;;;;;20.12;80.04;98634.56;1762394;81;21865;-54
2022/04/12 04:17:45;;;;;;;36.00;9.53;;;;;;;20.19;82.19;98637.61;1781919;80;22537;-54
2022/04/12 04:20:14;;;;;;;27.63;8.77;;;;;;;20.28;81.57;98642.53;1781111;80;21696;-55
2022/04/12 04:22:40;;;;;;;23.57;8.27;;;;;;;20.28;81.57;98642.53;1762065;81;21565;-55
2022/04/12 04:25:10;;;;;;;29.23;8.30;;;;;;;20.37;80.29;98635.52;1781937;80;21918;-55
2022/04/12 04:27:36;;;;;;;31.40;9.30;;;;;;;20.42;76.26;98630.70;1781648;80;21962;-55
2022/04/12 04:30:07;;;;;;;26.97;8.27;;;;;;;20.32;74.11;98628.98;1762159;81;21565;-56
2022/04/12 04:32:36;;;;;;;25.65;7.87;;;;;;;20.32;74.11;98628.98;1781921;80;21656;-56
2022/04/12 04:35:04;;;;;;;28.23;7.83;;;;;;;20.32;72.17;98629.52;1762168;81;21174;-56
2022/04/12 04:37:31;;;;;;;33.00;8.03;;;;;;;20.61;69.56;98616.16;1782074;80;21652;-54
2022/04/12 04:39:58;;;;;;;33.47;8.47;;;;;;;20.67;66.01;98595.67;1770326;80;21760;-55
2022/04/12 04:42:27;;;;;;;36.23;8.57;;;;;;;20.67;66.01;98595.67;1781571;80;21409;-55
2022/04/12 04:44:53;;;;;;;24.77;7.77;;;;;;;20.81;64.33;98587.23;1761539;81;21973;-55
2022/04/12 04:47:20;;;;;;;28.70;9.70;;;;;;;20.78;63.82;98577.99;1781998;79;21683;-54
2022/04/12 04:49:47;;;;;;;26.90;7.03;;;;;;;20.82;63.63;98571.58;1762131;81;21742;-54
2022/04/12 04:52:15;;;;;;;26.30;7.27;;;;;;;20.98;62.92;98564.92;1781907;80;21620;-56
2022/04/12 04:54:41;;;;;;;37.87;8.60;;;;;;;20.98;61.23;98554.33;1762004;81;21699;-56
2022/04/12 04:57:08;;;;;;;27.77;9.03;;;;;;;20.98;60.90;98556.98;1781986;80;22253;-54
2022/04/12 04:59:34;;;;;;;30.73;9.83;;;;;;;21.02;61.20;98552.67;1762227;81;22220;-55
2022/04/12 05:02:01;;;;;;;29.40;9.63;;;;;;;20.99;60.90;98547.98;1783625;79;22195;-58
2022/04/12 05:04:28;;;;;;;31.13;8.67;;;;;;;21.16;58.56;98541.30;1808335;79;21652;-54
2022/04/12 05:06:56;;;;;;;33.90;8.43;;;;;;;21.12;58.52;98541.11;1809083;79;22083;-54
2022/04/12 05:09:23;;;;;;;33.77;9.30;;;;;;;21.02;58.54;98544.72;1809063;79;21714;-55
2022/04/12 05:11:50;;;;;;;37.73;8.53;;;;;;;21.32;57.80;98535.95;1808892;79;21718;-56
2022/04/12 05:14:17;;;;;;;30.13;8.00;;;;;;;21.51;56.13;98543.27;1808347;78;20902;-55
2022/04/12 05:16:44;;;;;;;32.33;8.93;;;;;;;21.64;54.13;98552.85;1808942;79;21051;-55
2022/04/12 05:19:10;;;;;;;28.00;9.30;;;;;;;21.69;53.51;98542.12;1809158;79;21000;-56
2022/04/12 05:21:39;;;;;;;30.13;10.67;;;;;;;21.70;51.94;98531.75;1808746;78;20859;-55
2022/04/12 05:24:06;;;;;;;30.50;9.27;;;;;;;21.70;52.17;98538.38;1809087;79;21082;-55
2022/04/12 05:26:33;;;;;;;22.53;8.83;;;;;;;21.45;51.97;98539.72;1809292;79;21361;-56
2022/04/12 05:29:01;;;;;;;26.03;8.63;;;;;;;21.46;51.93;98541.28;1808996;79;20965;-55
2022/04/12 05:31:28;;;;;;;27.57;8.63;;;;;;;21.58;51.17;98533.05;1809510;79;20950;-56
2022/04/12 05:33:56;;;;;;;36.53;9.13;;;;;;;21.51;51.45;98524.71;1809232;79;20949;-55
2022/04/12 05:36:23;;;;;;;32.40;10.00;;;;;;;21.55;51.24;98516.41;1808764;79;21266;-58
2022/04/12 05:38:49;;;;;;;34.70;9.30;;;;;;;21.68;50.32;98529.95;1809624;79;21414;-57
2022/04/12 05:41:16;;;;;;;35.37;9.30;;;;;;;21.74;50.31;98538.81;1809554;77;21602;-55
2022/04/12 05:43:42;;;;;;;41.37;10.53;;;;;;;21.94;49.65;98530.97;1809388;79;21566;-56
2022/04/12 05:46:09;;;;;;;30.17;8.23;;;;;;;22.28;49.36;98534.45;1808436;79;20930;-61
2022/04/12 05:48:36;;;;;;;30.17;9.67;;;;;;;22.33;48.72;98538.85;1809244;79;21098;-56
2022/04/12 05:51:04;;;;;;;32.23;9.97;;;;;;;22.42;48.66;98539.68;1809277;79;21323;-55
2022/04/12 05:53:31;;;;;;;31.50;7.07;;;;;;;22.90;47.50;98548.86;1808914;78;21112;-55
2022/04/12 05:55:58;;;;;;;25.20;8.17;;;;;;;23.24;45.92;98564.97;1797457;79;21033;-56
2022/04/12 05:58:25;;;;;;;25.00;8.33;;;;;;;23.31;45.59;98594.56;1809571;79;21111;-57
2022/04/12 06:00:53;;;;;;;28.67;7.93;;;;;;;23.21;45.37;98599.36;1808120;79;22758;-56
2022/04/12 06:03:21;;;;;;;26.90;7.87;;;;;;;23.41;44.44;98613.97;1819185;78;20972;-55
2022/04/12 06:05:49;;;;;;;20.90;7.63;;;;;;;23.41;43.91;98598.02;1800594;77;21037;-55
2022/04/12 06:08:17;;;;;;;29.50;8.17;;;;;;;23.34;43.67;98609.13;1821291;77;21586;-55
2022/04/12 06:10:44;;;;;;;35.90;9.73;;;;;;;23.23;43.71;98615.80;1800637;77;20990;-61
2022/04/12 06:13:11;;;;;;;31.90;9.97;;;;;;;23.15;44.05;98613.34;1820440;78;21186;-57
2022/04/12 06:15:39;;;;;;;30.73;8.93;;;;;;;23.18;44.19;98609.27;1798645;79;20958;-56
2022/04/12 06:18:08;;;;;;;23.10;8.53;;;;;;;23.33;44.26;98612.07;1820722;78;20883;-55
2022/04/12 06:20:36;;;;;;;30.23;8.87;;;;;;;23.54;43.96;98613.09;1798332;79;20967;-62
2022/04/12 06:23:03;;;;;;;24.50;8.13;;;;;;;23.53;43.91;98624.28;1819775;78;21028;-55
2022/04/12 06:25:31;;;;;;;27.07;8.83;;;;;;;23.64;43.87;98619.47;1798770;79;21844;-59
2022/04/12 06:27:58;;;;;;;23.53;8.00;;;;;;;23.79;43.44;98620.95;1809570;78;21041;-57
2022/04/12 06:30:27;;;;;;;26.20;8.53;;;;;;;23.94;42.84;98631.67;1798569;79;20986;-56
2022/04/12 06:32:55;;;;;;;29.20;8.38;;;;;;;23.48;43.48;98630.27;1819614;78;20930;-55
2022/04/12 06:35:22;;;;;;;26.77;8.73;;;;;;;23.24;44.11;98627.45;1801341;77;20926;-55
2022/04/12 06:37:53;;;;;;;31.77;8.80;;;;;;;23.34;44.15;98625.08;1821104;78;21177;-55
2022/04/12 06:40:21;;;;;;;24.32;8.23;;;;;;;23.42;44.01;98628.31;1798983;79;21089;-57
2022/04/12 06:42:50;;;;;;;26.13;8.47;;;;;;;23.29;44.27;98638.48;1820043;78;21034;-55
2022/04/12 06:45:18;;;;;;;23.03;7.73;;;;;;;23.29;44.52;98639.27;1801120;77;20958;-57
2022/04/12 06:47:54;;;;;;;22.93;8.37;;;;;;;23.40;44.42;98634.47;1820616;78;21503;-56
2022/04/12 06:50:20;;;;;;;23.97;7.87;;;;;;;23.47;44.59;98636.14;1771980;79;21503;-60
2022/04/12 06:52:47;;;;;;;24.03;9.00;;;;;;;23.26;45.55;98635.91;1820633;78;21059;-56
2022/04/12 06:55:16;;;;;;;25.63;8.53;;;;;;;23.32;46.75;98643.20;1803321;77;21057;-58
2022/04/12 06:57:43;;;;;;;23.93;7.70;;;;;;;23.43;46.50;98633.08;1820553;78;20929;-56
2022/04/12 07:00:11;;;;;;;21.87;7.13;;;;;;;23.41;46.55;98642.70;1798744;79;21551;-55
2022/04/12 07:02:37;;;;;;;24.77;7.57;;;;;;;23.31;46.67;98637.09;1819652;78;21585;-61
2022/04/12 07:05:05;;;;;;;29.67;11.83;;;;;;;23.22;47.01;98644.78;1800471;77;21056;-57
2022/04/12 07:07:33;;;;;;;37.43;13.17;;;;;;;23.29;46.70;98661.08;1821031;78;20976;-55
2022/04/12 07:10:01;;;;;;;22.47;8.30;;;;;;;23.10;47.00;98665.84;1810061;78;20994;-56
2022/04/12 07:12:28;;;;;;;27.93;10.50;;;;;;;23.04;47.71;98677.93;1802081;77;21017;-56
2022/04/12 07:14:55;;;;;;;26.73;7.80;;;;;;;22.96;48.80;98683.98;1799057;77;21049;-55
2022/04/12 07:17:23;;;;;;;26.33;6.90;;;;;;;22.96;48.77;98691.95;1821074;78;20988;-56
2022/04/12 07:19:49;;;;;;;23.83;7.73;;;;;;;22.91;49.13;98697.89;1798455;79;20926;-55
2022/04/12 07:22:16;;;;;;;26.40;8.47;;;;;;;22.82;49.82;98697.28;1821324;78;20950;-56
2022/04/12 07:24:43;;;;;;;19.33;7.43;;;;;;;22.70;50.77;98696.27;1801178;77;20923;-57
2022/04/12 07:27:09;;;;;;;21.10;7.93;;;;;;;22.48;52.00;98693.81;1821083;78;21163;-55
2022/04/12 07:29:36;;;;;;;25.00;8.77;;;;;;;22.37;53.31;98681.84;1803346;77;21013;-56
2022/04/12 07:32:04;;;;;;;27.73;8.73;;;;;;;22.34;54.29;98670.49;1821263;78;21013;-55
2022/04/12 07:34:31;;;;;;;29.60;10.47;;;;;;;22.32;55.07;98662.84;1798917;79;21000;-56
2022/04/12 07:36:58;;;;;;;25.63;9.67;;;;;;;22.22;56.45;98652.98;1789008;77;21124;-55
2022/04/12 07:39:24;;;;;;;29.77;10.77;;;;;;;22.27;57.48;98647.00;1801236;77;21209;-56
2022/04/12 07:41:52;;;;;;;26.63;8.87;;;;;;;22.44;57.41;98641.06;1801473;78;20966;-55
2022/04/12 07:44:20;;;;;;;27.30;9.00;;;;;;;22.65;57.29;98652.54;1821094;78;20906;-57
2022/04/12 07:46:47;;;;;;;25.57;9.40;;;;;;;22.65;56.89;98655.19;1800433;77;21022;-56
2022/04/12 07:49:13;;;;;;;24.97;8.20;;;;;;;22.67;57.16;98651.16;1821249;78;21068;-55
2022/04/12 07:51:41;;;;;;;24.33;8.20;;;;;;;22.64;59.02;98658.39;1801296;77;21864;-55
2022/04/12 07:54:08;;;;;;;24.13;8.63;;;;;;;22.74;58.98;98657.38;1821355;78;20953;-55
2022/04/12 07:56:35;;;;;;;25.23;8.40;;;;;;;22.76;58.74;98654.65;1801144;77;20970;-55
2022/04/12 07:59:03;;;;;;;23.97;8.60;;;;;;;22.96;59.97;98650.77;1820623;78;20992;-55
2022/04/12 08:01:30;;;;;;;20.90;7.80;;;;;;;23.25;60.15;98637.53;1801304;77;21754;-55
2022/04/12 08:03:57;;;;;;;24.00;8.07;;;;;;;23.52;59.53;98633.88;1788502;78;21838;-57
2022/04/12 08:06:24;;;;;;;24.40;8.13;;;;;;;23.83;55.79;98615.76;1817244;78;20981;-55
2022/04/12 08:08:52;;;;;;;20.57;8.40;;;;;;;23.89;54.88;98614.53;1817080;78;21002;-59
2022/04/12 08:11:18;;;;;;;28.57;9.07;;;;;;;23.73;54.67;98624.83;1786275;78;21009;-56
2022/04/12 08:13:45;;;;;;;23.23;8.80;;;;;;;23.81;54.28;98617.97;1817691;78;21306;-57
2022/04/12 08:16:15;;;;;;;23.57;7.90;;;;;;;23.89;53.87;98626.50;1817554;78;21554;-55
2022/04/12 08:18:44;;;;;;;29.73;11.00;;;;;;;24.14;53.42;98627.64;1816756;78;21039;-57
2022/04/12 08:21:10;;;;;;;26.10;9.77;;;;;;;24.38;54.77;98629.28;1787276;78;21017;-61
2022/04/12 08:23:37;;;;;;;23.33;8.37;;;;;;;24.66;53.46;98642.30;1817102;78;20998;-56
2022/04/12 08:26:04;;;;;;;22.50;9.20;;;;;;;24.90;50.74;98651.91;1817437;78;21020;-56
2022/04/12 08:28:32;;;;;;;26.37;8.93;;;;;;;24.98;50.69;98651.66;1817358;78;20965;-56
2022/04/12 08:30:59;;;;;;;25.90;9.53;;;;;;;25.22;49.13;98653.81;1806549;78;20986;-55
2022/04/12 08:33:27;;;;;;;21.03;7.83;;;;;;;25.32;47.97;98661.47;1817639;78;20989;-59
2022/04/12 08:35:53;;;;;;;25.97;8.63;;;;;;;25.27;47.20;98662.99;1817471;78;21012;-54
2022/04/12 08:38:21;;;;;;;19.73;8.03;;;;;;;25.13;46.56;98670.40;1817756;78;20977;-54
2022/04/12 08:40:48;;;;;;;20.60;8.40;;;;;;;24.89;46.73;98674.87;1817163;78;21123;-54
2022/04/12 08:43:15;;;;;;;22.03;7.43;;;;;;;24.64;47.42;98683.14;1817654;78;20878;-60
2022/04/12 08:45:45;;;;;;;20.97;8.80;;;;;;;24.55;47.92;98680.48;1817532;78;20965;-54
2022/04/12 08:48:12;;;;;;;29.80;8.13;;;;;;;24.38;48.34;98680.44;1817804;78;21017;-53
2022/04/12 08:50:39;;;;;;;23.83;7.93;;;;;;;24.37;48.48;98686.31;1818178;78;21598;-54
2022/04/12 08:53:06;;;;;;;23.00;8.60;;;;;;;24.22;49.01;98689.43;1817677;78;21048;-54
2022/04/12 08:55:33;;;;;;;18.20;8.17;;;;;;;24.03;49.64;98691.82;1817043;78;21055;-55
2022/04/12 08:58:00;;;;;;;23.60;9.47;;;;;;;23.89;50.32;98699.69;1817861;78;20950;-54
2022/04/12 09:00:27;;;;;;;23.70;9.00;;;;;;;23.79;50.84;98704.20;1817700;77;20982;-54
2022/04/12 09:02:58;;;;;;;20.37;9.03;;;;;;;23.74;51.60;98710.20;1817530;78;21048;-54
2022/04/12 09:05:22;;;;;;;24.00;9.70;;;;;;;23.41;53.52;98713.17;1818077;78;21246;-55
2022/04/12 09:07:49;;;;;;;19.57;9.53;;;;;;;23.37;54.24;98713.52;1816762;78;20983;-55
2022/04/12 09:10:19;;;;;;;27.27;9.30;;;;;;;23.38;55.21;98710.34;1818205;78;20981;-55
2022/04/12 09:12:46;;;;;;;20.43;8.27;;;;;;;23.34;55.55;98708.05;1818172;78;21550;-54
2022/04/12 09:15:15;;;;;;;19.37;8.10;;;;;;;23.26;55.61;98712.20;1818018;78;21187;-54
2022/04/12 09:17:44;;;;;;;17.50;6.83;;;;;;;23.27;54.99;98719.11;1817602;78;21597;-56
2022/04/12 09:20:14;;;;;;;16.03;6.57;;;;;;;23.36;54.14;98720.48;1817568;78;20954;-56
2022/04/12 09:22:42;;;;;;;17.62;6.65;;;;;;;23.31;54.18;98725.39;1818264;78;20989;-54
2022/04/12 09:25:11;;;;;;;13.57;6.80;;;;;;;23.10;54.39;98718.99;1817773;78;21052;-55
2022/04/12 09:27:39;;;;;;;14.33;6.47;;;;;;;23.02;55.18;98722.61;1817856;78;21008;-57
2022/04/12 09:30:10;;;;;;;16.03;7.53;;;;;;;23.15;55.89;98722.33;1817307;78;22612;-55
2022/04/12 09:32:40;;;;;;;20.05;7.17;;;;;;;23.14;56.21;98729.25;1817164;78;20953;-55
2022/04/12 09:35:08;;;;;;;15.05;7.60;;;;;;;23.37;55.71;98726.03;1817974;78;20990;-57
2022/04/12 09:37:37;;;;;;;17.60;8.27;;;;;;;23.37;55.39;98724.16;1817152;78;20990;-55
2022/04/12 09:40:09;;;;;;;20.50;8.10;;;;;;;23.55;54.91;98725.81;1816768;78;21041;-57
2022/04/12 09:42:55;;;;;;;23.33;8.73;;;;;;;23.46;54.74;98721.02;1817651;78;21237;-54
2022/04/12 09:45:28;;;;;;;23.40;7.90;;;;;;;23.57;54.57;98726.08;1817832;78;21502;-55
2022/04/12 09:48:08;;;;;;;19.83;7.97;;;;;;;23.52;54.30;98729.11;1817194;78;22193;-54
2022/04/12 09:50:34;;;;;;;19.60;8.50;;;;;;;23.40;54.62;98739.50;1817448;78;20981;-54
2022/04/12 09:53:03;;;;;;;20.83;7.70;;;;;;;23.41;54.72;98745.08;1817451;78;21091;-56
2022/04/12 09:55:49;;;;;;;19.00;7.70;;;;;;;23.35;55.08;98745.51;1816925;78;21295;-58
2022/04/12 09:58:20;;;;;;;16.23;7.80;;;;;;;23.24;55.35;98751.61;1810218;78;21028;-56
2022/04/12 10:00:47;;;;;;;17.20;7.23;;;;;;;23.20;55.57;98754.64;1818016;78;21045;-54
2022/04/12 10:03:18;;;;;;;20.67;7.87;;;;;;;23.30;54.93;98751.73;1816502;78;22249;-55
2022/04/12 10:05:45;;;;;;;20.17;8.57;;;;;;;23.30;55.10;98761.83;1815886;79;21825;-53
2022/04/12 10:08:13;;;;;;;15.83;6.57;;;;;;;23.31;54.85;98758.63;1815891;79;21494;-55
2022/04/12 10:10:42;;;;;;;20.17;7.87;;;;;;;23.29;55.48;98767.43;1815375;79;20994;-55
2022/04/12 10:13:11;;;;;;;16.30;7.83;;;;;;;23.31;56.21;98766.59;1815598;79;20919;-60
2022/04/12 10:15:38;;;;;;;16.07;7.13;;;;;;;23.45;56.31;98768.65;1815908;79;21009;-54
2022/04/12 10:18:05;;;;;;;17.90;8.03;;;;;;;23.55;56.36;98766.26;1816240;79;21001;-55
2022/04/12 10:20:31;;;;;;;18.57;8.43;;;;;;;23.72;55.85;98768.27;1815745;79;22099;-55
2022/04/12 10:23:00;;;;;;;17.50;8.60;;;;;;;23.86;56.03;98762.28;1804845;79;22244;-56
2022/04/12 10:25:26;;;;;;;14.97;9.00;;;;;;;24.23;54.95;98768.20;1815420;79;21013;-60
2022/04/12 10:27:58;;;;;;;17.83;8.27;;;;;;;24.53;53.47;98769.24;1815575;79;20989;-54
2022/04/12 10:30:28;;;;;;;15.37;8.07;;;;;;;24.92;52.62;98770.20;1815225;79;21056;-54
2022/04/12 10:33:05;;;;;;;20.13;9.87;;;;;;;25.13;50.80;98775.72;1816066;79;21107;-54
2022/04/12 10:35:56;;;;;;;19.37;15.63;;;;;;;25.11;50.56;98773.35;1815076;79;22125;-57
2022/04/12 10:38:24;;;;;;;18.20;16.30;;;;;;;25.30;49.58;98779.69;1809433;79;22238;-55
2022/04/12 10:40:53;;;;;;;19.60;17.60;;;;;;;25.09;49.48;98786.75;1815607;79;21102;-56
2022/04/12 10:43:33;;;;;;;18.63;16.37;;;;;;;24.88;49.79;98785.25;1815147;79;20926;-54
2022/04/12 10:46:03;;;;;;;20.50;17.00;;;;;;;24.81;50.11;98791.59;1804625;79;21764;-55
2022/04/12 10:48:30;;;;;;;24.90;22.23;;;;;;;24.49;51.27;98789.61;1815928;79;20998;-55
2022/04/12 10:50:59;;;;;;;29.23;25.13;;;;;;;24.59;51.72;98789.32;1815134;79;20994;-55
2022/04/12 10:53:44;;;;;;;31.57;27.73;;;;;;;24.35;52.41;98792.36;1815939;79;21558;-56
2022/04/12 10:56:15;;;;;;;30.00;27.00;;;;;;;24.05;55.59;98791.32;1807287;79;20938;-55
2022/04/12 10:58:43;;;;;;;33.27;28.50;;;;;;;23.34;60.08;98797.13;1815306;79;21297;-55
2022/04/12 11:01:14;;;;;;;29.77;26.27;;;;;;;23.55;60.09;98798.95;1815865;79;21060;-56
2022/04/12 11:03:52;;;;;;;28.67;24.00;;;;;;;23.86;57.92;98794.22;1816002;77;21029;-55
2022/04/12 11:06:30;;;;;;;22.30;18.97;;;;;;;23.80;56.99;98795.45;1817602;78;21538;-55
2022/04/12 11:09:11;;;;;;;22.20;19.33;;;;;;;23.78;57.39;98800.28;1806073;78;20918;-56
2022/04/12 11:11:44;;;;;;;24.23;19.53;;;;;;;23.23;59.89;98797.91;1817445;78;21222;-55
2022/04/12 11:14:26;;;;;;;20.37;18.23;;;;;;;23.93;56.92;98787.91;1817521;78;21429;-55
2022/04/12 11:17:09;;;;;;;19.60;17.47;;;;;;;24.02;55.38;98790.08;1816169;78;21045;-55
2022/04/12 11:19:49;;;;;;;21.70;18.07;;;;;;;23.98;55.44;98793.64;1816903;78;20962;-55
2022/04/12 11:22:18;;;;;;;24.63;20.75;;;;;;;23.90;55.46;98805.03;1818126;78;21071;-54
2022/04/12 11:25:14;;;;;;;21.57;19.27;;;;;;;23.79;55.28;98812.52;1818070;78;21300;-54
2022/04/12 11:27:42;;;;;;;26.17;23.17;;;;;;;23.89;54.72;98823.44;1809162;78;20957;-55
2022/04/12 11:30:13;;;;;;;27.60;24.07;;;;;;;23.76;54.68;98827.76;1817681;78;20918;-55
2022/04/12 11:32:41;;;;;;;28.67;23.40;;;;;;;23.63;54.21;98839.22;1816710;78;21041;-56